Mercer County Airport
KBLF : now visible

Airfield :











YOU CAN JOIN US ON...

 
LOGIN :

Register | Disclaimer

   EN    FR    IT 

 









Legend :    VFR   Marginal VFR   IFR   Intensive IFR   Very Intensive IFR
Visi :
Ceiling :
>= 8 km
>= 3000ft
5 to 8 km
1000 to 3000 ft
1500m to 5 km
500 to 1000 ft
800 to 1500m
200 to 500 ft
< 800m
< 200 ft
Symbols :   Thunderstorms  Fog  Heavy snow  Heavy precipitations  Wind > 20 kt






- Airport Elevation : 2857 ft
- IATA code : BLF


KBLF - Mercer County

CURRENT METAR :
  • 220152Z AUTO 28008KT 10SM FEW015 M03/M05 A3005 RMK AO2 SLP193 T10281050

EXPIRED METARs :
  • 220138Z AUTO 29007G14KT 10SM SCT015 M03/M05 A3004 RMK AO2 T10281050
  • 220129Z AUTO 30008G15KT 10SM BKN015 M03/M05 A3004 RMK AO2 T10281050
  • 220059Z AUTO 29006KT 10SM SCT019 M02/M06 A3003 RMK AO2 T10221056
  • 220052Z AUTO 28009G15KT 10SM SCT019 BKN025 M02/M06 A3003 RMK AO2 SLP184 T10221056
  • 220021Z AUTO 32010G17KT 10SM BKN018 OVC060 M02/M06 A3002 RMK AO2 T10221056
  • 220004Z AUTO 30007G22KT 10SM BKN018 BKN046 OVC065 M02/M06 A3001 RMK AO2 T10221056
  • 212352Z AUTO 30011G22KT 9SM FEW016 BKN045 OVC060 M02/M06 A3001 RMK AO2 PK WND 30029/2337 SNB2255E18B36E52 SLP176 P0000 60003 T10221056 10011 21022 53015
  • 212338Z AUTO 31015G29KT 1SM -SN SCT014 SCT020 BKN028 M02/M05 A3001 RMK AO2 PK WND 30029/2337 SNB2255E18B36 P0000 T10171050

TAF KBLF
Valid from the 22 at 01:00 until the 23 at 00:00 UTC


220054Z 2201/2224 31012G22KT P6SM OVC025
TEMPO 2201/2203 -SHSN BKN018
FM220500 29008KT P6SM OVC015
FM221400 28012G22KT P6SM BKN030
KZID FIR / North America



MET'MAP, your aeronautical weather chart ! - Copyright ORBIFLY December 2007 - Disclaimer

ORBIFLY MET'MAP TEAM :

Programming & Development : Alexandra Zaïnal
Concept & original design : Baudouin d'Aumeries
Assistance for programming : Marc-Olivier Méhu
Technical & hardware support : Manuel Goepfert

Contact : metmap@orbifly.com




SOURCES & CREDITS :

   NOAA       Earth
Advisory